Time;durP1;ratioP1;P1;durP2;ratioP2;P2;SDS_P1;SDS_P2;PMS_P1;PMS_P2;Temp;Humidity;BMP_temperature;BMP_pressure;BME280_temperature;BME280_humidity;BME280_pressure;Samples;Min_cycle;Max_cycle;Signal;HPM_P1;HPM_P2
2022/10/31 00:01:10;;;;;;;15.95;10.43;;;10.50;99.90;;;;;;5032237;28;20027;-73
2022/10/31 00:03:36;;;;;;;15.52;10.65;;;10.50;99.90;;;;;;5030808;28;20116;-74
2022/10/31 00:06:01;;;;;;;15.52;9.50;;;10.40;99.90;;;;;;5032136;28;20101;-73
2022/10/31 00:08:27;;;;;;;16.65;10.48;;;10.20;99.90;;;;;;5031196;28;20044;-73
2022/10/31 00:10:52;;;;;;;13.95;9.23;;;10.30;99.90;;;;;;5045367;28;20036;-73
2022/10/31 00:13:18;;;;;;;14.90;9.57;;;10.30;99.90;;;;;;5031911;28;20151;-74
2022/10/31 00:15:43;;;;;;;14.00;9.77;;;10.40;99.90;;;;;;5031944;28;20484;-73
2022/10/31 00:18:10;;;;;;;14.45;9.38;;;10.30;99.90;;;;;;5031587;28;20057;-74
2022/10/31 00:20:35;;;;;;;17.58;10.40;;;10.40;99.90;;;;;;5031889;28;20022;-75
2022/10/31 00:23:02;;;;;;;14.52;8.93;;;10.30;99.90;;;;;;5030373;28;20021;-74
2022/10/31 00:25:32;;;;;;;13.82;9.30;;;10.30;99.90;;;;;;5026531;28;20391;-75
2022/10/31 00:27:57;;;;;;;14.65;8.90;;;10.20;99.90;;;;;;5030420;28;20394;-76
2022/10/31 00:30:23;;;;;;;19.75;10.85;;;10.20;99.90;;;;;;5031702;28;20036;-74
2022/10/31 00:32:49;;;;;;;16.90;9.98;;;10.30;99.90;;;;;;5031692;28;20036;-74
2022/10/31 00:35:14;;;;;;;16.30;9.45;;;10.30;99.90;;;;;;5031756;28;20033;-76
2022/10/31 00:37:40;;;;;;;17.58;9.10;;;10.40;99.90;;;;;;5026708;28;20026;-74
2022/10/31 00:40:06;;;;;;;14.60;8.48;;;10.40;99.90;;;;;;5031599;28;20021;-74
2022/10/31 00:42:32;;;;;;;13.95;9.45;;;10.40;99.90;;;;;;5031577;28;20080;-75
2022/10/31 00:44:57;;;;;;;13.10;8.73;;;10.50;99.90;;;;;;5031488;28;20025;-76
2022/10/31 00:47:23;;;;;;;17.33;9.05;;;10.40;99.90;;;;;;5031399;28;20079;-76
2022/10/31 00:49:48;;;;;;;11.93;8.18;;;10.30;99.90;;;;;;5031667;28;20030;-76
2022/10/31 00:52:14;;;;;;;14.90;8.13;;;10.20;99.90;;;;;;5044889;28;20065;-76
2022/10/31 00:54:39;;;;;;;12.63;7.90;;;10.30;99.90;;;;;;5031641;28;20372;-74
2022/10/31 00:57:05;;;;;;;14.88;8.90;;;10.40;99.90;;;;;;5044511;28;20033;-75
2022/10/31 00:59:30;;;;;;;15.55;9.18;;;10.50;99.90;;;;;;5044365;28;20032;-74
2022/10/31 01:01:56;;;;;;;16.33;9.50;;;10.40;99.90;;;;;;5031911;28;20056;-75
2022/10/31 01:04:22;;;;;;;14.15;8.40;;;10.30;99.90;;;;;;5030171;28;20057;-74
2022/10/31 01:06:47;;;;;;;14.07;8.15;;;10.30;99.90;;;;;;5031109;28;20036;-73
2022/10/31 01:09:13;;;;;;;16.30;8.02;;;10.30;99.90;;;;;;5020926;28;20522;-74
2022/10/31 01:11:38;;;;;;;15.85;7.88;;;10.20;99.90;;;;;;5044636;28;20056;-74
2022/10/31 01:14:04;;;;;;;13.68;8.68;;;10.20;99.90;;;;;;5044928;28;20048;-75
2022/10/31 01:16:29;;;;;;;16.67;9.13;;;10.30;99.90;;;;;;5031451;28;20507;-73
2022/10/31 01:18:55;;;;;;;16.00;8.75;;;10.30;99.90;;;;;;5032554;28;20057;-74
2022/10/31 01:21:24;;;;;;;15.20;8.45;;;10.20;99.90;;;;;;5035448;28;20021;-73
2022/10/31 01:23:51;;;;;;;11.98;8.68;;;10.10;99.90;;;;;;5035349;28;20463;-73
2022/10/31 01:26:19;;;;;;;12.60;9.02;;;10.00;99.90;;;;;;5035526;28;20053;-74
2022/10/31 01:28:46;;;;;;;12.38;8.73;;;9.90;99.90;;;;;;5035710;28;20629;-75
2022/10/31 01:31:12;;;;;;;12.40;8.00;;;9.80;99.90;;;;;;5035427;28;20100;-75
2022/10/31 01:33:38;;;;;;;15.85;8.05;;;9.80;99.90;;;;;;5035215;28;20163;-75
2022/10/31 01:36:22;;;;;;;13.48;8.75;;;9.80;99.90;;;;;;5035263;28;20033;-73
2022/10/31 01:38:48;;;;;;;17.35;8.50;;;9.80;99.90;;;;;;5035167;28;20116;-74
2022/10/31 01:41:17;;;;;;;18.00;9.32;;;9.80;99.90;;;;;;5035351;28;20032;-73
2022/10/31 01:43:50;;;;;;;20.42;9.50;;;9.80;99.90;;;;;;5035197;28;20159;-73
2022/10/31 01:46:20;;;;;;;15.35;8.98;;;9.90;99.90;;;;;;5035176;28;20475;-73
2022/10/31 01:48:47;;;;;;;17.55;9.20;;;9.90;99.90;;;;;;5034707;28;20494;-74
2022/10/31 01:51:14;;;;;;;16.17;11.00;;;10.00;99.90;;;;;;5034963;28;20027;-74
2022/10/31 01:53:41;;;;;;;15.63;10.95;;;9.90;99.90;;;;;;5034887;28;20022;-73
2022/10/31 01:56:08;;;;;;;20.30;12.60;;;9.70;99.90;;;;;;5034729;28;20018;-75
2022/10/31 01:58:34;;;;;;;70.32;16.90;;;9.80;99.90;;;;;;5019581;28;20036;-74
2022/10/31 02:01:01;;;;;;;22.33;12.65;;;9.60;99.90;;;;;;5034639;28;20399;-74
2022/10/31 02:03:28;;;;;;;16.08;11.88;;;9.30;99.90;;;;;;5034512;28;20025;-73
2022/10/31 02:05:56;;;;;;;13.73;10.02;;;9.30;99.90;;;;;;5034478;28;20029;-74
2022/10/31 02:08:33;;;;;;;15.43;9.80;;;9.30;99.90;;;;;;5033873;28;20052;-74
2022/10/31 02:11:01;;;;;;;14.13;9.05;;;9.50;99.90;;;;;;5029881;28;20028;-74
2022/10/31 02:13:28;;;;;;;12.95;10.63;;;9.50;99.90;;;;;;5028070;28;20037;-74
2022/10/31 02:15:57;;;;;;;16.67;9.80;;;9.60;99.90;;;;;;5034350;28;20552;-74
2022/10/31 02:18:25;;;;;;;11.98;9.27;;;9.50;99.90;;;;;;5034013;28;20037;-74
2022/10/31 02:21:16;;;;;;;16.05;11.15;;;9.50;99.90;;;;;;5034190;28;20025;-74
2022/10/31 02:24:15;;;;;;;12.48;9.05;;;9.50;99.90;;;;;;5034219;28;20155;-75
2022/10/31 02:26:57;;;;;;;14.18;9.23;;;9.40;99.90;;;;;;5029097;28;20025;-74
2022/10/31 02:29:41;;;;;;;13.50;9.75;;;9.30;99.90;;;;;;5034112;28;20025;-75
2022/10/31 02:32:24;;;;;;;18.30;10.00;;;9.40;99.90;;;;;;5033361;28;20446;-75
2022/10/31 02:35:14;;;;;;;12.85;9.07;;;9.30;99.90;;;;;;5034063;28;20090;-75
2022/10/31 02:38:08;;;;;;;16.15;12.93;;;9.30;99.90;;;;;;4996435;28;20030;-75
2022/10/31 02:41:04;;;;;;;13.77;9.63;;;9.30;99.90;;;;;;4970214;28;20045;-75
2022/10/31 02:44:16;;;;;;;18.02;10.82;;;9.30;99.90;;;;;;5018725;28;20033;-74
2022/10/31 02:47:01;;;;;;;13.45;9.32;;;9.30;99.90;;;;;;5013599;28;20593;-74
2022/10/31 02:49:37;;;;;;;18.42;11.30;;;9.30;99.90;;;;;;5025742;28;20112;-75
2022/10/31 02:52:14;;;;;;;13.23;10.13;;;9.30;99.90;;;;;;5033761;28;20029;-75
2022/10/31 02:54:40;;;;;;;18.05;11.75;;;9.30;99.90;;;;;;5033672;28;20017;-75
2022/10/31 02:57:08;;;;;;;18.10;11.93;;;9.30;99.90;;;;;;5033299;28;20116;-74
2022/10/31 02:59:36;;;;;;;19.48;11.38;;;9.20;99.90;;;;;;5033829;28;20371;-74
2022/10/31 03:02:29;;;;;;;13.45;10.38;;;9.20;99.90;;;;;;5033539;28;20104;-74
2022/10/31 03:05:11;;;;;;;14.00;10.10;;;9.20;99.90;;;;;;5029031;28;20430;-76
2022/10/31 03:07:39;;;;;;;14.93;11.45;;;9.10;99.90;;;;;;5033236;28;20030;-76
2022/10/31 03:10:20;;;;;;;20.92;12.57;;;9.10;99.90;;;;;;5033227;28;20044;-75
2022/10/31 03:12:58;;;;;;;13.50;10.60;;;9.20;99.90;;;;;;5033097;28;20033;-75
2022/10/31 03:15:35;;;;;;;17.17;12.30;;;9.20;99.90;;;;;;5022763;28;20163;-75
2022/10/31 03:18:09;;;;;;;16.88;12.55;;;9.20;99.90;;;;;;5032859;28;20109;-75
2022/10/31 03:20:45;;;;;;;17.88;15.93;;;8.90;99.90;;;;;;5033143;28;20028;-74
2022/10/31 03:23:15;;;;;;;18.45;15.32;;;9.00;99.90;;;;;;5033030;28;20021;-75
2022/10/31 03:25:43;;;;;;;22.92;17.20;;;9.00;99.90;;;;;;5032843;28;20029;-75
2022/10/31 03:28:11;;;;;;;22.13;15.98;;;9.00;99.90;;;;;;5032779;28;20033;-75
2022/10/31 03:30:41;;;;;;;19.27;15.63;;;9.10;99.90;;;;;;5031485;28;20053;-75
2022/10/31 03:33:09;;;;;;;28.02;18.35;;;9.00;99.90;;;;;;5032794;28;20024;-74
2022/10/31 03:35:36;;;;;;;22.88;16.92;;;9.00;99.90;;;;;;5046031;28;20127;-75
2022/10/31 03:38:02;;;;;;;34.80;24.48;;;9.00;99.90;;;;;;5032339;28;20033;-74
2022/10/31 03:40:30;;;;;;;28.58;20.77;;;8.90;99.90;;;;;;5032556;28;20032;-74
2022/10/31 03:43:03;;;;;;;27.48;19.73;;;8.70;99.90;;;;;;5031612;28;20510;-75
2022/10/31 03:45:30;;;;;;;24.10;17.25;;;8.80;99.90;;;;;;5045769;28;20025;-75
2022/10/31 03:47:58;;;;;;;15.55;13.90;;;8.80;99.90;;;;;;5032328;28;20033;-75
2022/10/31 03:50:28;;;;;;;25.83;16.40;;;8.80;99.90;;;;;;5031199;28;20025;-75
2022/10/31 03:53:09;;;;;;;16.75;13.00;;;8.70;99.90;;;;;;5031064;28;20091;-74
2022/10/31 03:55:52;;;;;;;20.50;13.90;;;8.70;99.90;;;;;;5032357;28;20039;-73
2022/10/31 03:58:17;;;;;;;16.35;12.98;;;8.60;99.90;;;;;;5032151;28;20033;-73
2022/10/31 04:00:45;;;;;;;16.38;11.23;;;8.70;99.90;;;;;;5031052;28;20031;-73
2022/10/31 04:03:42;;;;;;;14.85;11.30;;;8.60;99.90;;;;;;5030948;28;20049;-74
2022/10/31 04:06:11;;;;;;;14.82;11.75;;;8.70;99.90;;;;;;5015411;28;20044;-74
2022/10/31 04:08:43;;;;;;;18.27;12.65;;;8.70;99.90;;;;;;5031895;28;20557;-73
2022/10/31 04:11:11;;;;;;;15.10;12.88;;;8.60;99.90;;;;;;5045352;28;20463;-73
2022/10/31 04:13:38;;;;;;;16.83;12.00;;;8.60;99.90;;;;;;5031821;28;20029;-72
2022/10/31 04:16:05;;;;;;;13.70;11.30;;;8.60;99.90;;;;;;5030716;28;20052;-73
2022/10/31 04:18:31;;;;;;;16.27;10.93;;;8.60;99.90;;;;;;5031689;28;20029;-73
2022/10/31 04:21:05;;;;;;;17.20;12.60;;;8.60;99.90;;;;;;5031962;28;20121;-74
2022/10/31 04:23:31;;;;;;;19.67;12.70;;;8.70;99.90;;;;;;5031890;28;20513;-73
2022/10/31 04:25:56;;;;;;;16.52;12.27;;;8.80;99.90;;;;;;5031806;28;20029;-73
2022/10/31 04:28:22;;;;;;;17.42;14.50;;;8.90;99.90;;;;;;5031735;28;20028;-73
2022/10/31 04:30:48;;;;;;;20.67;17.13;;;8.70;99.90;;;;;;5031773;28;20033;-73
2022/10/31 04:33:14;;;;;;;22.15;19.60;;;8.60;99.90;;;;;;5031808;28;20029;-74
2022/10/31 04:35:40;;;;;;;41.78;22.98;;;8.40;99.90;;;;;;5031886;28;20025;-73
2022/10/31 04:38:05;;;;;;;39.15;18.45;;;8.60;99.90;;;;;;5031439;28;20394;-74
2022/10/31 04:40:31;;;;;;;103.55;19.75;;;8.60;99.90;;;;;;5031646;28;20025;-73
2022/10/31 04:42:56;;;;;;;201.38;32.78;;;8.50;99.90;;;;;;5031602;28;20021;-75
2022/10/31 04:45:22;;;;;;;529.63;50.47;;;8.60;99.90;;;;;;5031715;28;20112;-75
2022/10/31 04:47:47;;;;;;;251.70;42.13;;;8.50;99.90;;;;;;5030168;28;20037;-75
2022/10/31 04:50:13;;;;;;;135.35;24.50;;;8.40;99.90;;;;;;5030350;28;20048;-75
2022/10/31 04:52:43;;;;;;;73.55;20.33;;;8.30;99.90;;;;;;5031487;28;20549;-74
2022/10/31 04:55:09;;;;;;;116.13;28.15;;;8.50;99.90;;;;;;5034787;28;20052;-74
2022/10/31 04:57:42;;;;;;;95.20;25.48;;;8.50;99.90;;;;;;5034097;28;20044;-76
2022/10/31 05:00:09;;;;;;;60.90;21.40;;;8.30;99.90;;;;;;5035645;28;20148;-75
2022/10/31 05:02:46;;;;;;;82.35;24.92;;;8.30;99.90;;;;;;5025882;28;20039;-75
2022/10/31 05:05:13;;;;;;;33.50;23.25;;;8.40;99.90;;;;;;5035684;28;20025;-74
2022/10/31 05:07:43;;;;;;;30.67;13.10;;;8.60;99.90;;;;;;5035131;28;20100;-74
2022/10/31 05:10:11;;;;;;;79.35;17.75;;;8.70;99.90;;;;;;5043094;28;20032;-75
2022/10/31 05:12:37;;;;;;;73.50;16.88;;;8.90;99.90;;;;;;5033990;28;20083;-75
2022/10/31 05:15:04;;;;;;;51.63;22.80;;;9.00;99.90;;;;;;5034149;28;20025;-74
2022/10/31 05:17:31;;;;;;;46.95;22.50;;;9.00;99.90;;;;;;5023591;28;20029;-73
2022/10/31 05:19:56;;;;;;;46.53;22.05;;;9.00;99.90;;;;;;5029062;28;20079;-72
2022/10/31 05:22:22;;;;;;;45.60;14.13;;;9.10;99.90;;;;;;5035040;28;20414;-73
2022/10/31 05:24:47;;;;;;;59.20;15.90;;;9.10;99.90;;;;;;5035232;28;20023;-74
2022/10/31 05:27:13;;;;;;;27.85;14.05;;;9.10;99.90;;;;;;5035014;28;20037;-74
2022/10/31 05:29:38;;;;;;;33.72;15.95;;;9.00;99.90;;;;;;5035096;28;20447;-72
2022/10/31 05:32:04;;;;;;;50.47;18.25;;;9.00;99.90;;;;;;5035012;28;20033;-74
2022/10/31 05:34:29;;;;;;;18.60;11.48;;;9.00;99.90;;;;;;5034971;28;20029;-74
2022/10/31 05:36:55;;;;;;;22.88;14.07;;;9.10;99.90;;;;;;5047908;28;20072;-75
2022/10/31 05:39:20;;;;;;;23.85;14.23;;;9.10;99.90;;;;;;5021569;28;20052;-73
2022/10/31 05:41:46;;;;;;;20.88;12.82;;;9.00;99.90;;;;;;5034882;28;20017;-75
2022/10/31 05:44:11;;;;;;;55.22;20.35;;;9.10;99.90;;;;;;5042432;28;20492;-75
2022/10/31 05:46:37;;;;;;;22.50;18.00;;;9.10;99.90;;;;;;5040371;28;20554;-75
2022/10/31 05:49:02;;;;;;;26.17;16.35;;;9.20;99.90;;;;;;5033356;28;20387;-76
2022/10/31 05:51:28;;;;;;;27.00;16.38;;;9.20;99.90;;;;;;5047991;28;20650;-75
2022/10/31 05:53:53;;;;;;;225.63;35.60;;;9.30;99.90;;;;;;5042043;28;20033;-75
2022/10/31 05:56:19;;;;;;;175.75;32.50;;;9.30;99.90;;;;;;5040352;28;20040;-75
2022/10/31 05:58:44;;;;;;;204.00;31.25;;;9.40;99.90;;;;;;5034354;28;20034;-76
2022/10/31 06:01:10;;;;;;;446.13;47.58;;;9.40;99.90;;;;;;5034526;28;20029;-75
2022/10/31 06:03:36;;;;;;;440.15;37.88;;;9.40;99.90;;;;;;5033052;28;20075;-74
2022/10/31 06:06:01;;;;;;;314.13;36.45;;;9.50;99.90;;;;;;5033190;28;20375;-73
2022/10/31 06:08:27;;;;;;;254.40;31.08;;;9.60;99.90;;;;;;5032531;28;20037;-74
2022/10/31 06:10:53;;;;;;;197.48;28.40;;;9.70;99.90;;;;;;5035091;28;20060;-73
2022/10/31 06:13:19;;;;;;;313.88;27.60;;;9.80;99.90;;;;;;5034011;28;20022;-75
2022/10/31 06:15:44;;;;;;;184.02;25.55;;;9.70;99.90;;;;;;5032018;28;20030;-74
2022/10/31 06:18:10;;;;;;;183.30;31.30;;;9.70;99.90;;;;;;5033822;28;20081;-74
2022/10/31 06:20:35;;;;;;;126.53;34.88;;;9.70;99.90;;;;;;5034022;28;20034;-75
2022/10/31 06:23:01;;;;;;;194.98;45.08;;;9.70;99.90;;;;;;5034266;28;20037;-75
2022/10/31 06:25:27;;;;;;;405.67;68.53;;;9.90;99.90;;;;;;5034079;28;20094;-74
2022/10/31 06:27:53;;;;;;;390.05;57.65;;;9.90;99.90;;;;;;5034007;28;20021;-74
2022/10/31 06:30:19;;;;;;;388.42;66.72;;;9.80;99.90;;;;;;5034118;28;20033;-73
2022/10/31 06:32:44;;;;;;;343.63;67.10;;;9.70;99.90;;;;;;5033956;28;20530;-73
2022/10/31 06:35:10;;;;;;;318.75;62.58;;;9.50;99.90;;;;;;5034003;28;20391;-73
2022/10/31 06:37:35;;;;;;;325.38;68.70;;;9.20;99.90;;;;;;5039656;28;20032;-73
2022/10/31 06:40:01;;;;;;;376.05;55.30;;;9.10;99.90;;;;;;5041116;28;20032;-74
2022/10/31 06:42:27;;;;;;;197.70;33.13;;;9.00;99.90;;;;;;5033770;28;20564;-74
2022/10/31 06:44:52;;;;;;;350.70;52.88;;;9.00;99.90;;;;;;5033808;28;20036;-74
2022/10/31 06:47:18;;;;;;;265.42;45.47;;;9.00;99.90;;;;;;5033672;28;20056;-74
2022/10/31 06:49:43;;;;;;;424.35;58.33;;;9.10;99.90;;;;;;5033684;28;20568;-73
2022/10/31 06:52:09;;;;;;;320.05;57.15;;;9.20;99.90;;;;;;5033598;28;20080;-73
2022/10/31 06:54:34;;;;;;;288.75;52.22;;;9.20;99.90;;;;;;5023685;28;20672;-74
2022/10/31 06:57:00;;;;;;;263.23;55.53;;;9.30;99.90;;;;;;5046553;28;20032;-73
2022/10/31 06:59:25;;;;;;;168.50;40.38;;;9.30;99.90;;;;;;5033399;28;20545;-74
2022/10/31 07:01:51;;;;;;;358.10;53.65;;;9.30;99.90;;;;;;5029961;28;20050;-74
2022/10/31 07:04:16;;;;;;;327.40;71.07;;;9.30;99.90;;;;;;5033355;28;20064;-74
2022/10/31 07:06:42;;;;;;;219.07;44.13;;;9.30;99.90;;;;;;5033264;28;20369;-74
2022/10/31 07:09:07;;;;;;;153.32;34.25;;;9.30;99.90;;;;;;5033158;28;20057;-74
2022/10/31 07:11:33;;;;;;;131.48;39.15;;;9.50;99.90;;;;;;5033316;28;20025;-74
2022/10/31 07:13:58;;;;;;;79.50;25.95;;;9.60;99.90;;;;;;5045951;28;20505;-75
2022/10/31 07:16:24;;;;;;;162.30;57.30;;;9.60;99.90;;;;;;5030498;28;20104;-75
2022/10/31 07:18:50;;;;;;;230.02;50.70;;;9.70;99.90;;;;;;5044960;28;20100;-75
2022/10/31 07:21:15;;;;;;;244.55;57.28;;;9.80;99.90;;;;;;5034075;28;20029;-75
2022/10/31 07:23:41;;;;;;;62.70;29.25;;;9.90;99.90;;;;;;5032951;28;20026;-75
2022/10/31 07:26:09;;;;;;;117.55;37.17;;;10.00;99.90;;;;;;5032605;28;20159;-74
2022/10/31 07:28:34;;;;;;;203.57;46.20;;;10.00;99.90;;;;;;5022284;28;20037;-74
2022/10/31 07:31:00;;;;;;;145.75;36.17;;;10.00;99.90;;;;;;5046112;28;20029;-74
2022/10/31 07:33:26;;;;;;;241.40;42.13;;;10.00;99.90;;;;;;5023987;28;20022;-74
2022/10/31 07:35:52;;;;;;;114.68;38.03;;;10.00;99.90;;;;;;5032590;28;20385;-75
2022/10/31 07:38:17;;;;;;;100.63;24.08;;;10.00;99.90;;;;;;5031148;28;20036;-75
2022/10/31 07:40:43;;;;;;;133.43;32.85;;;10.10;99.90;;;;;;5032661;28;20097;-75
2022/10/31 07:43:11;;;;;;;146.60;34.70;;;10.10;99.90;;;;;;5034611;28;20033;-75
2022/10/31 07:45:36;;;;;;;74.97;27.75;;;10.30;99.90;;;;;;5033752;28;20021;-74
2022/10/31 07:48:02;;;;;;;142.45;32.47;;;10.30;99.90;;;;;;5022482;28;20022;-74
2022/10/31 07:50:30;;;;;;;144.73;32.95;;;10.40;99.90;;;;;;5030066;28;20052;-75
2022/10/31 07:53:12;;;;;;;132.95;41.10;;;10.30;99.90;;;;;;5032264;28;20037;-75
2022/10/31 07:55:38;;;;;;;77.88;26.13;;;10.20;99.90;;;;;;5032366;28;20097;-74
2022/10/31 07:58:06;;;;;;;56.75;23.80;;;10.20;99.90;;;;;;5032090;28;20121;-74
2022/10/31 08:00:33;;;;;;;67.57;24.63;;;10.20;99.90;;;;;;5040756;28;20086;-74
2022/10/31 08:03:07;;;;;;;101.63;31.42;;;10.30;99.90;;;;;;5036894;28;20541;-74
2022/10/31 08:05:34;;;;;;;159.57;26.38;;;10.40;99.90;;;;;;5041598;28;20025;-74
2022/10/31 08:08:00;;;;;;;180.10;34.65;;;10.20;99.90;;;;;;5030719;28;20136;-74
2022/10/31 08:10:26;;;;;;;101.35;25.02;;;10.20;99.90;;;;;;5029700;28;20029;-74
2022/10/31 08:13:06;;;;;;;143.20;32.28;;;10.30;99.90;;;;;;5032079;28;20064;-74
2022/10/31 08:15:34;;;;;;;247.95;44.08;;;10.40;99.90;;;;;;5032068;28;20499;-76
2022/10/31 08:18:00;;;;;;;131.48;30.23;;;10.40;99.90;;;;;;5017370;28;20037;-75
2022/10/31 08:20:25;;;;;;;206.88;32.38;;;10.40;99.90;;;;;;5031639;28;20064;-74
2022/10/31 08:22:59;;;;;;;248.50;41.60;;;10.60;99.90;;;;;;5036968;28;20040;-74
2022/10/31 08:25:27;;;;;;;314.58;52.25;;;10.70;99.90;;;;;;5030493;28;20505;-74
2022/10/31 08:27:53;;;;;;;87.00;23.02;;;10.70;99.90;;;;;;5031538;28;20115;-75
2022/10/31 08:30:20;;;;;;;460.25;53.00;;;10.80;99.90;;;;;;5030226;28;20075;-73
2022/10/31 08:32:46;;;;;;;334.85;47.60;;;10.80;99.90;;;;;;5044845;28;20028;-74
2022/10/31 08:35:12;;;;;;;183.60;24.80;;;10.80;99.90;;;;;;5031722;28;20033;-74
2022/10/31 08:37:38;;;;;;;66.55;21.00;;;10.80;99.90;;;;;;5029778;28;20525;-73
2022/10/31 08:40:05;;;;;;;185.75;37.83;;;10.90;99.90;;;;;;5019984;28;20061;-73
2022/10/31 08:42:30;;;;;;;48.55;16.60;;;11.00;99.90;;;;;;5018858;28;20029;-74
2022/10/31 08:44:56;;;;;;;250.93;34.22;;;11.10;99.90;;;;;;5030421;28;20536;-74
2022/10/31 08:47:21;;;;;;;289.23;36.17;;;11.20;99.90;;;;;;5031136;28;20017;-73
2022/10/31 08:49:47;;;;;;;212.98;31.70;;;11.20;99.90;;;;;;5031114;28;20026;-74
2022/10/31 08:52:14;;;;;;;187.48;31.70;;;11.30;99.90;;;;;;5031198;28;20496;-74
2022/10/31 08:54:40;;;;;;;252.95;31.10;;;11.40;99.90;;;;;;5019926;28;20123;-74
2022/10/31 08:57:05;;;;;;;150.82;33.67;;;11.20;99.90;;;;;;5031180;28;20471;-74
2022/10/31 08:59:31;;;;;;;113.13;30.08;;;11.10;99.90;;;;;;5033474;28;20032;-74
2022/10/31 09:01:57;;;;;;;212.55;47.15;;;11.30;99.90;;;;;;5037931;28;20026;-76
2022/10/31 09:04:22;;;;;;;275.77;46.80;;;11.30;99.90;;;;;;5049327;28;20053;-75
2022/10/31 09:06:48;;;;;;;329.98;64.28;;;11.40;99.90;;;;;;5038710;28;20075;-75
2022/10/31 09:09:13;;;;;;;134.48;35.97;;;11.30;99.90;;;;;;5031396;28;20026;-76
2022/10/31 09:11:39;;;;;;;158.30;34.33;;;11.30;99.90;;;;;;5044655;28;20026;-77
2022/10/31 09:14:04;;;;;;;94.18;28.52;;;11.40;99.90;;;;;;5044347;28;20040;-75
2022/10/31 09:16:30;;;;;;;430.48;74.43;;;11.30;99.90;;;;;;5014858;28;20021;-76
2022/10/31 09:18:55;;;;;;;245.80;48.60;;;11.50;99.90;;;;;;5022940;28;20495;-76
2022/10/31 09:21:21;;;;;;;962.05;371.13;;;11.40;99.90;;;;;;5031372;28;20022;-73
2022/10/31 09:23:46;;;;;;;1052.53;576.08;;;11.60;99.90;;;;;;5031266;28;20025;-76
2022/10/31 09:26:12;;;;;;;192.55;38.63;;;11.50;99.90;;;;;;5031383;28;20013;-76
2022/10/31 09:28:37;;;;;;;79.63;26.70;;;11.60;99.90;;;;;;5031060;28;20034;-76
2022/10/31 09:31:03;;;;;;;120.88;37.15;;;11.70;99.90;;;;;;5033149;28;20021;-76
2022/10/31 09:33:29;;;;;;;165.45;39.30;;;11.90;99.90;;;;;;5037150;28;20029;-76
2022/10/31 09:35:54;;;;;;;104.30;39.72;;;12.10;99.90;;;;;;5018083;28;20057;-76
2022/10/31 09:38:20;;;;;;;46.45;27.52;;;12.30;99.90;;;;;;5038511;28;20069;-76
2022/10/31 09:40:55;;;;;;;54.58;28.00;;;12.30;99.90;;;;;;5028955;28;20117;-76
2022/10/31 09:43:42;;;;;;;28.63;22.58;;;12.30;99.90;;;;;;5027307;28;20025;-76
2022/10/31 09:46:17;;;;;;;37.78;24.70;;;12.30;99.90;;;;;;5036933;28;20048;-76
2022/10/31 09:48:59;;;;;;;23.33;20.73;;;12.40;99.90;;;;;;5036963;28;20033;-76
2022/10/31 09:51:26;;;;;;;35.20;24.55;;;12.50;99.90;;;;;;5026629;28;20082;-76
2022/10/31 09:54:01;;;;;;;27.63;23.02;;;12.30;99.90;;;;;;5023157;28;20025;-76
2022/10/31 09:56:28;;;;;;;30.10;22.95;;;12.30;99.90;;;;;;5041038;28;20068;-76
2022/10/31 09:58:58;;;;;;;31.45;25.52;;;12.30;99.90;;;;;;5046368;28;20407;-76
2022/10/31 10:01:39;;;;;;;49.42;29.85;;;12.50;99.90;;;;;;5036122;28;20025;-76
2022/10/31 10:04:37;;;;;;;29.83;23.58;;;12.40;99.90;;;;;;5033088;28;20112;-76
2022/10/31 10:07:14;;;;;;;21.48;19.02;;;12.50;99.90;;;;;;5013258;28;20021;-76
2022/10/31 10:09:39;;;;;;;25.13;20.75;;;12.80;99.90;;;;;;5036336;28;20032;-76
2022/10/31 10:12:32;;;;;;;24.10;21.50;;;12.90;99.90;;;;;;5033096;28;20026;-77
2022/10/31 10:15:28;;;;;;;23.65;20.70;;;12.90;99.90;;;;;;5029366;28;20036;-76
2022/10/31 10:18:02;;;;;;;21.02;18.83;;;12.90;99.90;;;;;;5035128;28;20033;-76
2022/10/31 10:20:42;;;;;;;18.48;14.77;;;12.90;99.90;;;;;;5031535;28;20095;-76
2022/10/31 10:23:32;;;;;;;18.98;16.85;;;13.10;99.90;;;;;;5028479;28;20028;-76
2022/10/31 10:26:19;;;;;;;15.93;14.32;;;13.10;99.90;;;;;;5032110;28;20025;-77
2022/10/31 10:29:02;;;;;;;17.52;15.55;;;13.30;99.90;;;;;;5033938;28;20100;-77
2022/10/31 10:31:35;;;;;;;16.77;14.82;;;13.40;99.90;;;;;;5022692;28;20029;-77
2022/10/31 10:34:22;;;;;;;16.48;13.30;;;13.40;99.90;;;;;;5025990;28;20430;-77
2022/10/31 10:36:54;;;;;;;15.07;13.57;;;13.60;99.90;;;;;;5046837;28;20043;-77
2022/10/31 10:39:32;;;;;;;15.00;13.50;;;13.70;99.90;;;;;;5031899;28;20438;-76
2022/10/31 10:47:59;;;;;;;19.27;13.20;;;13.80;99.90;;;;;;5032515;28;20394;-77
2022/10/31 10:50:34;;;;;;;15.63;13.25;;;13.90;99.90;;;;;;5044825;28;20566;-76
2022/10/31 10:53:38;;;;;;;14.82;13.27;;;13.90;99.90;;;;;;5050753;28;20082;-77
2022/10/31 10:56:13;;;;;;;13.65;12.20;;;13.90;99.90;;;;;;5046062;28;20057;-77
2022/10/31 10:58:41;;;;;;;14.02;12.65;;;14.10;99.90;;;;;;5022049;28;20029;-77
2022/10/31 11:01:12;;;;;;;13.70;12.30;;;14.10;99.90;;;;;;5021751;28;20044;-76
2022/10/31 11:03:39;;;;;;;14.00;12.55;;;14.20;99.90;;;;;;5033481;28;20013;-77
2022/10/31 11:06:16;;;;;;;14.30;12.55;;;14.30;99.90;;;;;;5046976;28;20021;-77
2022/10/31 11:08:41;;;;;;;14.10;12.52;;;14.40;99.90;;;;;;5042277;28;20380;-76
2022/10/31 11:11:30;;;;;;;13.43;11.85;;;14.40;99.90;;;;;;5033186;28;20048;-77
2022/10/31 11:14:02;;;;;;;14.50;11.95;;;14.40;99.90;;;;;;5033355;28;20045;-76
2022/10/31 11:16:35;;;;;;;15.02;12.25;;;14.50;99.90;;;;;;5033358;28;20047;-77
2022/10/31 11:19:25;;;;;;;13.35;11.88;;;14.50;99.90;;;;;;5025813;28;20124;-77
2022/10/31 11:21:50;;;;;;;12.48;11.15;;;14.50;99.90;;;;;;5032478;28;20018;-77
2022/10/31 11:24:27;;;;;;;14.90;11.68;;;14.70;99.90;;;;;;5033408;28;20083;-77
2022/10/31 11:27:11;;;;;;;14.95;11.80;;;14.80;99.90;;;;;;5025486;28;20029;-77
2022/10/31 11:29:36;;;;;;;11.55;10.45;;;14.80;99.90;;;;;;5020902;28;20023;-77
2022/10/31 11:32:02;;;;;;;11.48;10.38;;;14.90;99.90;;;;;;5034118;28;20021;-77
2022/10/31 11:34:41;;;;;;;12.02;10.75;;;14.90;99.90;;;;;;5033112;28;20061;-77
2022/10/31 11:37:24;;;;;;;11.05;9.93;;;14.80;99.90;;;;;;5027512;28;20483;-77
2022/10/31 11:40:05;;;;;;;11.93;10.15;;;14.80;99.90;;;;;;5031621;28;20671;-76
2022/10/31 11:42:38;;;;;;;10.70;9.60;;;14.80;99.90;;;;;;5005774;28;20109;-76
2022/10/31 11:45:14;;;;;;;13.50;10.15;;;14.90;99.90;;;;;;5020229;28;20031;-76
2022/10/31 11:47:43;;;;;;;10.15;9.15;;;15.00;99.90;;;;;;5031168;28;20465;-76
2022/10/31 11:50:11;;;;;;;11.57;10.18;;;15.00;99.90;;;;;;5034497;28;20033;-76
2022/10/31 11:52:39;;;;;;;10.18;9.13;;;15.00;99.90;;;;;;5044924;28;20026;-78
2022/10/31 11:55:26;;;;;;;12.35;10.60;;;15.10;99.90;;;;;;5015062;28;20060;-77
2022/10/31 11:57:53;;;;;;;11.10;9.88;;;15.20;99.90;;;;;;5020934;28;20495;-76
2022/10/31 12:00:32;;;;;;;11.30;10.10;;;15.40;99.90;;;;;;5017852;28;20032;-76
2022/10/31 12:03:24;;;;;;;10.77;9.48;;;15.50;99.90;;;;;;5045326;28;20430;-77
2022/10/31 12:06:03;;;;;;;11.80;10.60;;;15.20;99.90;;;;;;5016626;28;20040;-76
2022/10/31 12:08:33;;;;;;;11.15;9.95;;;15.20;99.90;;;;;;5019052;28;20513;-76
2022/10/31 12:11:12;;;;;;;11.93;10.60;;;15.20;99.90;;;;;;5033301;28;20033;-77
2022/10/31 12:13:51;;;;;;;12.60;11.30;;;15.20;99.90;;;;;;5042583;28;20033;-77
2022/10/31 12:16:16;;;;;;;12.35;10.82;;;15.20;99.90;;;;;;5028777;28;20475;-76
2022/10/31 12:19:00;;;;;;;18.48;10.63;;;15.10;99.90;;;;;;5023138;28;20025;-76
2022/10/31 12:21:48;;;;;;;13.05;11.48;;;15.20;99.90;;;;;;5038966;28;20094;-76
2022/10/31 12:24:26;;;;;;;13.80;10.55;;;15.10;99.90;;;;;;5049021;28;20091;-76
2022/10/31 12:27:11;;;;;;;11.75;10.35;;;15.30;99.90;;;;;;5016240;28;20030;-76
2022/10/31 12:29:50;;;;;;;12.30;10.95;;;15.30;99.90;;;;;;5031436;28;20375;-76
2022/10/31 12:32:40;;;;;;;13.15;10.70;;;15.50;99.90;;;;;;5034327;28;20035;-76
2022/10/31 12:35:27;;;;;;;10.60;9.40;;;15.50;99.90;;;;;;5028315;28;20036;-78
2022/10/31 12:37:55;;;;;;;;;;;15.50;99.90;;;;;;5029236;28;20032;-76
2022/10/31 12:40:43;;;;;;;10.38;8.85;;;15.70;99.90;;;;;;5036584;28;19915;-77
2022/10/31 12:43:18;;;;;;;10.70;8.88;;;15.70;99.90;;;;;;5031585;28;20072;-77
2022/10/31 12:45:53;;;;;;;10.70;8.18;;;15.70;99.90;;;;;;5032023;28;20013;-77
2022/10/31 12:48:40;;;;;;;9.33;8.30;;;15.70;99.90;;;;;;5032633;28;20022;-76
2022/10/31 12:51:14;;;;;;;11.45;9.02;;;15.60;99.90;;;;;;5042355;28;20294;-77
2022/10/31 12:54:11;;;;;;;11.88;8.77;;;15.90;99.90;;;;;;5032736;28;20379;-76